createdAt,value
2022-10-10T00:00:12.750Z,102259.47
2022-10-10T00:03:00.078Z,102255.09
2022-10-10T00:05:26.914Z,102256.03
2022-10-10T00:07:54.004Z,102252.63
2022-10-10T00:10:21.305Z,102247.41
2022-10-10T00:12:49.312Z,102247.59
2022-10-10T00:15:16.600Z,102254.53
2022-10-10T00:17:44.299Z,102254.59
2022-10-10T00:20:12.007Z,102252.84
2022-10-10T00:22:39.555Z,102257.19
2022-10-10T00:25:07.504Z,102252.06
2022-10-10T00:27:34.798Z,102245.91
2022-10-10T00:30:02.302Z,102245.84
2022-10-10T00:32:29.395Z,102236.44
2022-10-10T00:34:56.349Z,102239.91
2022-10-10T00:37:23.512Z,102242.63
2022-10-10T00:39:50.452Z,102235.59
2022-10-10T00:42:18.671Z,102234.00
2022-10-10T00:44:46.386Z,102226.94
2022-10-10T00:47:13.709Z,102221.81
2022-10-10T00:49:42.388Z,102227.00
2022-10-10T00:52:10.993Z,102216.69
2022-10-10T00:54:39.543Z,102212.31
2022-10-10T00:57:10.639Z,102217.69
2022-10-10T00:59:39.139Z,102208.09
2022-10-10T01:02:06.407Z,102205.44
2022-10-10T01:04:45.239Z,102204.59
2022-10-10T01:07:14.857Z,102207.38
2022-10-10T01:09:43.219Z,102195.97
2022-10-10T01:12:29.084Z,102199.63
2022-10-10T01:15:06.795Z,102196.13
2022-10-10T01:17:39.191Z,102195.59
2022-10-10T01:20:23.464Z,102190.84
2022-10-10T01:23:13.561Z,102190.91
2022-10-10T01:25:40.409Z,102177.13
2022-10-10T01:28:25.361Z,102181.59
2022-10-10T01:30:52.287Z,102185.84
2022-10-10T01:33:29.469Z,102186.03
2022-10-10T01:36:01.838Z,102180.72
2022-10-10T01:38:37.278Z,102176.28
2022-10-10T01:41:33.463Z,102171.25
2022-10-10T01:44:00.847Z,102162.50
2022-10-10T01:46:27.691Z,102165.34
2022-10-10T01:48:56.316Z,102160.88
2022-10-10T01:51:26.296Z,102153.13
2022-10-10T01:54:11.942Z,102150.66
2022-10-10T01:56:48.067Z,102151.69
2022-10-10T01:59:14.988Z,102148.19
2022-10-10T02:01:51.014Z,102143.03
2022-10-10T02:04:35.279Z,102141.41
2022-10-10T02:07:06.713Z,102141.63
2022-10-10T02:09:38.722Z,102126.72
2022-10-10T02:12:07.275Z,102125.91
2022-10-10T02:14:37.820Z,102133.81
2022-10-10T02:17:08.191Z,102134.03
2022-10-10T02:19:35.626Z,102121.66
2022-10-10T02:22:03.152Z,102124.22
2022-10-10T02:24:30.004Z,102114.66
2022-10-10T02:27:02.485Z,102120.03
2022-10-10T02:29:32.295Z,102117.44
2022-10-10T02:31:59.421Z,102112.22
2022-10-10T02:34:28.231Z,102114.66
2022-10-10T02:37:00.431Z,102112.03
2022-10-10T02:39:30.304Z,102101.78
2022-10-10T02:41:57.244Z,102095.84
2022-10-10T02:44:25.392Z,102094.84
2022-10-10T02:46:52.420Z,102099.28
2022-10-10T02:49:33.894Z,102094.84
2022-10-10T02:52:01.215Z,102092.28
2022-10-10T02:54:28.489Z,102084.44
2022-10-10T02:56:55.757Z,102080.25
2022-10-10T02:59:22.867Z,102082.66
2022-10-10T03:01:49.861Z,102075.00
2022-10-10T03:04:17.323Z,102078.25
2022-10-10T03:06:44.325Z,102069.78
2022-10-10T03:09:11.592Z,102062.78
2022-10-10T03:11:38.545Z,102063.44
2022-10-10T03:14:05.675Z,102060.94
2022-10-10T03:16:32.495Z,102049.69
2022-10-10T03:18:59.373Z,102066.25
2022-10-10T03:21:26.444Z,102049.69
2022-10-10T03:23:53.248Z,102054.06
2022-10-10T03:26:21.065Z,102055.03
2022-10-10T03:28:48.080Z,102054.19
2022-10-10T03:31:15.221Z,102042.91
2022-10-10T03:33:42.315Z,102059.47
2022-10-10T03:36:09.382Z,102037.63
2022-10-10T03:38:36.297Z,102040.94
2022-10-10T03:41:03.552Z,102037.53
2022-10-10T03:43:30.635Z,102033.44
2022-10-10T03:45:57.673Z,102034.28
2022-10-10T03:48:24.777Z,102029.09
2022-10-10T03:50:51.860Z,102023.16
2022-10-10T03:53:18.926Z,102022.09
2022-10-10T03:55:46.019Z,102014.50
2022-10-10T03:58:12.890Z,102019.69
2022-10-10T04:00:39.991Z,102017.97
2022-10-10T04:03:07.012Z,102017.22
2022-10-10T04:05:36.388Z,102013.69
2022-10-10T04:08:03.462Z,102009.44
2022-10-10T04:10:30.881Z,102000.72
2022-10-10T04:12:58.839Z,101999.88
2022-10-10T04:15:26.039Z,101991.22
2022-10-10T04:17:52.974Z,101996.47
2022-10-10T04:20:20.099Z,102000.00
2022-10-10T04:22:46.948Z,101996.53
2022-10-10T04:25:14.074Z,101991.38
2022-10-10T04:27:41.049Z,101986.31
2022-10-10T04:30:08.372Z,101978.50
2022-10-10T04:32:35.429Z,101976.88
2022-10-10T04:35:02.678Z,101969.94
2022-10-10T04:37:29.632Z,101971.78
2022-10-10T04:39:56.749Z,101957.78
2022-10-10T04:42:23.688Z,101960.31
2022-10-10T04:44:50.875Z,101956.81
2022-10-10T04:47:17.888Z,101958.72
2022-10-10T04:49:45.162Z,101956.09
2022-10-10T04:52:12.433Z,101965.69
2022-10-10T04:54:39.879Z,101953.41
2022-10-10T04:57:06.757Z,101957.00
2022-10-10T04:59:34.063Z,101960.56
2022-10-10T05:02:02.036Z,101952.69
2022-10-10T05:04:29.314Z,101952.72
2022-10-10T05:06:56.428Z,101944.88
2022-10-10T05:09:23.545Z,101943.13
2022-10-10T05:11:50.555Z,101930.09
2022-10-10T05:14:17.634Z,101930.22
2022-10-10T05:16:44.513Z,101931.88
2022-10-10T05:19:11.728Z,101931.47
2022-10-10T05:21:38.980Z,101924.66
2022-10-10T05:24:06.217Z,101922.78
2022-10-10T05:26:33.110Z,101919.22
2022-10-10T05:29:01.735Z,101921.97
2022-10-10T05:31:29.048Z,101907.94
2022-10-10T05:33:56.284Z,101904.44
2022-10-10T05:36:23.134Z,101901.84
2022-10-10T05:38:50.552Z,101900.03
2022-10-10T05:41:17.463Z,101905.00
2022-10-10T05:43:44.613Z,101909.97
2022-10-10T05:46:11.604Z,101903.25
2022-10-10T05:48:38.796Z,101901.38
2022-10-10T05:51:07.147Z,101901.19
2022-10-10T05:53:34.293Z,101889.94
2022-10-10T05:56:02.160Z,101889.22
2022-10-10T05:58:29.400Z,101882.47
2022-10-10T06:01:02.071Z,101884.91
2022-10-10T06:03:29.217Z,101870.66
2022-10-10T06:05:56.162Z,101879.91
2022-10-10T06:08:23.288Z,101881.66
2022-10-10T06:10:50.468Z,101878.25
2022-10-10T06:13:23.838Z,101870.09
2022-10-10T06:15:52.361Z,101865.56
2022-10-10T06:18:19.757Z,101861.81
2022-10-10T06:20:46.769Z,101860.13
2022-10-10T06:23:13.962Z,101860.13
2022-10-10T06:25:41.782Z,101857.53
2022-10-10T06:28:10.045Z,101850.44
2022-10-10T06:30:44.203Z,101852.66
2022-10-10T06:33:12.127Z,101839.78
2022-10-10T06:35:40.760Z,101847.22
2022-10-10T06:38:07.916Z,101844.63
2022-10-10T06:40:34.787Z,101837.53
2022-10-10T06:43:02.075Z,101839.59
2022-10-10T06:45:29.232Z,101835.84
2022-10-10T06:47:56.292Z,101832.38
2022-10-10T06:50:23.208Z,101835.91
2022-10-10T06:52:50.642Z,101827.88
2022-10-10T06:55:17.943Z,101829.28
2022-10-10T06:57:45.296Z,101814.47
2022-10-10T07:00:12.596Z,101818.34
2022-10-10T07:02:41.093Z,101831.47
2022-10-10T07:05:09.482Z,101820.59
2022-10-10T07:07:36.627Z,101820.50
2022-10-10T07:10:03.559Z,101819.41
2022-10-10T07:12:35.724Z,101826.53
2022-10-10T07:15:06.917Z,101823.13
2022-10-10T07:17:34.019Z,101822.53
2022-10-10T07:20:00.891Z,101827.34
2022-10-10T07:22:27.965Z,101834.56
2022-10-10T07:24:54.816Z,101833.63
2022-10-10T07:27:22.183Z,101823.97
2022-10-10T07:29:49.190Z,101821.59
2022-10-10T07:32:16.267Z,101822.28
2022-10-10T07:34:43.112Z,101812.84
2022-10-10T07:37:10.244Z,101813.16
2022-10-10T07:39:37.049Z,101808.81
2022-10-10T07:42:04.123Z,101810.16
2022-10-10T07:44:34.437Z,101808.59
2022-10-10T07:47:02.039Z,101804.03
2022-10-10T07:49:28.999Z,101806.59
2022-10-10T07:52:00.447Z,101800.31
2022-10-10T07:54:28.783Z,101803.34
2022-10-10T07:56:56.024Z,101796.75
2022-10-10T07:59:23.002Z,101794.03
2022-10-10T08:01:50.263Z,101788.28
2022-10-10T08:04:17.439Z,101795.75
2022-10-10T08:06:44.668Z,101795.50
2022-10-10T08:09:11.619Z,101794.69
2022-10-10T08:11:38.720Z,101781.22
2022-10-10T08:14:05.639Z,101780.94
2022-10-10T08:16:32.836Z,101773.84
2022-10-10T08:18:59.845Z,101772.31
2022-10-10T08:21:27.131Z,101775.22
2022-10-10T08:23:53.984Z,101777.13
2022-10-10T08:26:21.747Z,101778.50
2022-10-10T08:28:48.992Z,101768.63
2022-10-10T08:31:18.006Z,101770.38
2022-10-10T08:33:46.155Z,101760.44
2022-10-10T08:36:14.680Z,101752.69
2022-10-10T08:38:41.582Z,101747.28
2022-10-10T08:41:10.679Z,101751.47
2022-10-10T08:44:06.800Z,101750.31
2022-10-10T08:46:39.875Z,101746.25
2022-10-10T08:49:30.020Z,101735.19
2022-10-10T08:52:00.279Z,101741.34
2022-10-10T08:54:29.603Z,101743.53
2022-10-10T08:56:59.599Z,101734.34
2022-10-10T08:59:33.603Z,101737.53
2022-10-10T09:02:18.078Z,101731.53
2022-10-10T09:04:47.028Z,101730.09
2022-10-10T09:07:33.007Z,101728.13
2022-10-10T09:10:05.932Z,101724.47
2022-10-10T09:12:33.020Z,101723.25
2022-10-10T09:15:02.373Z,101724.75
2022-10-10T09:17:35.365Z,101720.19
2022-10-10T09:20:21.475Z,101716.44
2022-10-10T09:22:53.672Z,101719.19
2022-10-10T09:25:27.617Z,101718.91
2022-10-10T09:27:58.771Z,101716.31
2022-10-10T09:30:27.477Z,101720.41
2022-10-10T09:33:09.588Z,101714.47
2022-10-10T09:35:39.138Z,101712.13
2022-10-10T09:38:18.105Z,101711.91
2022-10-10T09:40:49.486Z,101704.78
2022-10-10T09:43:19.784Z,101702.69
2022-10-10T09:45:59.197Z,101709.38
2022-10-10T09:48:31.643Z,101706.72
2022-10-10T09:50:59.588Z,101709.06
2022-10-10T09:53:26.687Z,101695.66
2022-10-10T09:55:54.624Z,101699.56
2022-10-10T09:58:40.143Z,101696.19
2022-10-10T10:01:15.238Z,101707.94
2022-10-10T10:03:42.629Z,101701.69
2022-10-10T10:06:15.020Z,101682.81
2022-10-10T10:08:42.849Z,101701.22
2022-10-10T10:11:42.091Z,101693.16
2022-10-10T10:14:29.325Z,101684.53
2022-10-10T10:17:05.939Z,101670.78
2022-10-10T10:19:37.158Z,101670.72
2022-10-10T10:22:04.416Z,101678.66
2022-10-10T10:24:36.303Z,101678.75
2022-10-10T10:27:13.550Z,101672.88
2022-10-10T10:29:46.396Z,101674.56
2022-10-10T10:32:32.008Z,101669.47
2022-10-10T10:35:08.141Z,101665.06
2022-10-10T10:37:35.240Z,101670.59
2022-10-10T10:40:21.068Z,101672.84
2022-10-10T10:43:10.791Z,101662.75
2022-10-10T10:45:40.753Z,101666.53
2022-10-10T10:48:26.563Z,101665.69
2022-10-10T10:51:05.238Z,101659.44
2022-10-10T10:53:38.666Z,101653.75
2022-10-10T10:56:13.822Z,101653.59
2022-10-10T11:01:56.938Z,101651.19
2022-10-10T11:05:23.583Z,101647.03
2022-10-10T11:07:20.569Z,101650.91
2022-10-10T11:09:51.093Z,101648.38
2022-10-10T11:12:33.997Z,101647.88
2022-10-10T11:15:03.177Z,101647.69
2022-10-10T11:17:32.544Z,101644.69
2022-10-10T11:20:03.429Z,101630.69
2022-10-10T11:22:46.306Z,101636.81
2022-10-10T11:25:16.706Z,101631.34
2022-10-10T11:27:48.550Z,101630.56
2022-10-10T11:30:36.399Z,101633.50
2022-10-10T11:33:11.487Z,101629.84
2022-10-10T11:35:38.616Z,101628.19
2022-10-10T11:38:10.763Z,101626.81
2022-10-10T11:40:45.272Z,101631.44
2022-10-10T11:43:29.024Z,101632.69
2022-10-10T11:46:03.229Z,101631.59
2022-10-10T11:48:37.926Z,101628.44
2022-10-10T11:51:16.163Z,101625.38
2022-10-10T11:53:44.685Z,101625.66
2022-10-10T11:56:21.744Z,101615.69
2022-10-10T11:58:51.396Z,101614.38
2022-10-10T12:01:27.507Z,101622.25
2022-10-10T12:03:57.319Z,101622.78
2022-10-10T12:06:40.936Z,101609.41
2022-10-10T12:09:16.179Z,101612.28
2022-10-10T12:11:56.358Z,101606.53
2022-10-10T12:14:26.343Z,101599.91
2022-10-10T12:16:53.591Z,101595.69
2022-10-10T12:19:22.427Z,101598.88
2022-10-10T12:21:52.028Z,101585.69
2022-10-10T12:24:18.884Z,101580.59
2022-10-10T12:26:54.960Z,101573.69
2022-10-10T12:29:40.061Z,101568.88
2022-10-10T12:32:11.108Z,101573.19
2022-10-10T12:34:50.145Z,101570.47
2022-10-10T12:37:23.521Z,101561.47
2022-10-10T12:40:02.235Z,101555.19
2022-10-10T12:42:59.919Z,101557.16
2022-10-10T12:45:29.868Z,101554.25
2022-10-10T12:48:06.428Z,101555.00
2022-10-10T12:50:36.877Z,101552.78
2022-10-10T12:53:03.940Z,101549.16
2022-10-10T12:55:43.094Z,101547.69
2022-10-10T12:58:26.508Z,101549.34
2022-10-10T13:00:55.307Z,101541.88
2022-10-10T13:03:36.497Z,101541.44
2022-10-10T13:06:09.370Z,101547.22
2022-10-10T13:08:37.611Z,101550.50
2022-10-10T13:11:09.475Z,101542.03
2022-10-10T13:13:36.640Z,101547.78
2022-10-10T13:16:08.494Z,101539.78
2022-10-10T13:18:43.237Z,101538.19
2022-10-10T13:21:14.524Z,101540.84
2022-10-10T13:23:43.732Z,101534.81
2022-10-10T13:26:19.766Z,101534.91
2022-10-10T13:28:47.002Z,101530.38
2022-10-10T13:31:14.275Z,101523.56
2022-10-10T13:33:41.535Z,101514.81
2022-10-10T13:36:09.371Z,101532.25
2022-10-10T13:38:36.528Z,101531.34
2022-10-10T13:41:04.852Z,101530.22
2022-10-10T13:43:33.292Z,101523.41
2022-10-10T13:46:01.842Z,101524.94
2022-10-10T13:48:35.088Z,101520.69
2022-10-10T13:51:03.923Z,101525.09
2022-10-10T13:53:51.322Z,101521.50
2022-10-10T13:56:21.333Z,101522.34
2022-10-10T13:58:53.083Z,101527.31
2022-10-10T14:01:32.255Z,101528.94
2022-10-10T14:04:05.303Z,101526.59
2022-10-10T14:06:32.578Z,101517.56
2022-10-10T14:09:07.197Z,101518.28
2022-10-10T14:11:34.906Z,101518.97
2022-10-10T14:14:08.315Z,101525.47
2022-10-10T14:16:35.376Z,101515.94
2022-10-10T14:19:02.214Z,101512.09
2022-10-10T14:21:29.344Z,101511.72
2022-10-10T14:23:56.139Z,101513.00
2022-10-10T14:26:23.037Z,101510.84
2022-10-10T14:28:50.339Z,101511.81
2022-10-10T14:31:17.763Z,101503.19
2022-10-10T14:33:46.154Z,101501.72
2022-10-10T14:36:14.034Z,101493.75
2022-10-10T14:38:41.638Z,101498.88
2022-10-10T14:41:10.340Z,101499.44
2022-10-10T14:43:38.736Z,101499.13
2022-10-10T14:46:12.524Z,101500.75
2022-10-10T14:48:39.671Z,101498.91
2022-10-10T14:51:33.325Z,101505.66
2022-10-10T14:54:12.048Z,101503.00
2022-10-10T14:57:06.529Z,101503.28
2022-10-10T14:59:46.248Z,101496.03
2022-10-10T15:02:16.152Z,101482.41
2022-10-10T15:04:43.273Z,101483.25
2022-10-10T15:07:14.423Z,101483.09
2022-10-10T15:09:52.494Z,101483.59
2022-10-10T15:12:30.483Z,101485.59
2022-10-10T15:15:00.526Z,101477.66
2022-10-10T15:17:30.557Z,101484.84
2022-10-10T15:19:57.652Z,101476.34
2022-10-10T15:22:24.651Z,101469.69
2022-10-10T15:24:51.483Z,101472.22
2022-10-10T15:27:18.793Z,101458.25
2022-10-10T15:29:45.673Z,101468.09
2022-10-10T15:32:12.878Z,101462.97
2022-10-10T15:34:39.843Z,101465.53
2022-10-10T15:37:08.205Z,101458.00
2022-10-10T15:39:35.903Z,101466.38
2022-10-10T15:42:10.963Z,101468.41
2022-10-10T15:44:45.763Z,101466.13
2022-10-10T15:47:12.978Z,101477.22
2022-10-10T15:49:40.085Z,101478.66
2022-10-10T15:52:08.021Z,101489.00
2022-10-10T15:54:35.160Z,101488.31
2022-10-10T15:57:02.674Z,101480.75
2022-10-10T15:59:29.589Z,101492.03
2022-10-10T16:01:57.038Z,101485.94
2022-10-10T16:04:25.337Z,101484.75
2022-10-10T16:07:19.915Z,101488.06
2022-10-10T16:09:40.877Z,101492.03
2022-10-10T16:12:07.908Z,101487.59
2022-10-10T16:14:35.147Z,101497.50
2022-10-10T16:17:02.448Z,101500.91
2022-10-10T16:19:29.718Z,101501.06
2022-10-10T16:21:56.718Z,101505.59
2022-10-10T16:24:23.849Z,101505.31
2022-10-10T16:26:50.727Z,101501.41
2022-10-10T16:29:18.842Z,101507.53
2022-10-10T16:31:46.011Z,101504.81
2022-10-10T16:34:16.054Z,101493.78
2022-10-10T16:36:43.447Z,101497.88
2022-10-10T16:39:10.541Z,101496.50
2022-10-10T16:41:52.935Z,101499.28
2022-10-10T16:44:19.895Z,101499.19
2022-10-10T16:46:47.423Z,101497.19
2022-10-10T16:49:16.898Z,101501.00
2022-10-10T16:51:44.261Z,101494.88
2022-10-10T16:54:11.685Z,101497.34
2022-10-10T16:56:38.847Z,101496.72
2022-10-10T16:59:05.676Z,101497.38
2022-10-10T17:01:33.051Z,101500.78
2022-10-10T17:04:00.581Z,101500.44
2022-10-10T17:06:34.133Z,101515.34
2022-10-10T17:09:02.992Z,101510.94
2022-10-10T17:11:30.108Z,101501.84
2022-10-10T17:13:56.939Z,101500.19
2022-10-10T17:19:13.089Z,101500.84
2022-10-10T17:21:40.494Z,101495.34
2022-10-10T17:24:07.375Z,101494.34
2022-10-10T17:26:34.328Z,101493.88
2022-10-10T17:29:01.973Z,101490.31
2022-10-10T17:31:28.949Z,101501.69
2022-10-10T17:33:56.919Z,101500.59
2022-10-10T17:36:26.583Z,101499.38
2022-10-10T17:38:53.832Z,101488.63
2022-10-10T17:41:21.200Z,101492.56
2022-10-10T17:43:48.711Z,101493.94
2022-10-10T17:49:06.053Z,101494.78
2022-10-10T17:51:34.320Z,101499.56
2022-10-10T17:54:01.304Z,101497.31
2022-10-10T17:56:28.758Z,101499.06
2022-10-10T17:58:55.895Z,101499.72
2022-10-10T18:01:23.408Z,101497.47
2022-10-10T18:03:51.406Z,101496.38
2022-10-10T18:06:20.543Z,101501.41
2022-10-10T18:08:51.571Z,101500.41
2022-10-10T18:11:20.909Z,101502.97
2022-10-10T18:13:47.811Z,101506.50
2022-10-10T18:16:16.863Z,101500.75
2022-10-10T18:18:50.437Z,101498.50
2022-10-10T18:21:19.164Z,101501.13
2022-10-10T18:23:46.369Z,101498.88
2022-10-10T18:26:17.859Z,101501.50
2022-10-10T18:28:44.878Z,101496.50
2022-10-10T18:31:14.312Z,101504.81
2022-10-10T18:33:41.872Z,101506.16
2022-10-10T18:36:09.875Z,101498.78
2022-10-10T18:38:38.128Z,101498.63
2022-10-10T18:41:06.413Z,101504.09
2022-10-10T18:43:33.816Z,101491.75
2022-10-10T18:46:02.113Z,101492.13
2022-10-10T18:48:29.639Z,101495.81
2022-10-10T18:51:00.845Z,101501.16
2022-10-10T18:53:28.761Z,101499.94
2022-10-10T18:55:57.087Z,101502.34
2022-10-10T18:58:24.269Z,101491.16
2022-10-10T19:00:51.749Z,101492.34
2022-10-10T19:03:18.941Z,101495.19
2022-10-10T19:05:45.967Z,101496.19
2022-10-10T19:08:14.203Z,101491.34
2022-10-10T19:10:45.368Z,101498.44
2022-10-10T19:13:12.945Z,101492.97
2022-10-10T19:15:40.084Z,101496.19
2022-10-10T19:18:07.704Z,101496.63
2022-10-10T19:20:35.916Z,101492.78
2022-10-10T19:23:03.196Z,101492.72
2022-10-10T19:25:31.119Z,101491.91
2022-10-10T19:27:58.432Z,101499.56
2022-10-10T19:30:25.735Z,101498.28
2022-10-10T19:32:52.693Z,101498.56
2022-10-10T19:35:19.862Z,101503.88
2022-10-10T19:37:46.915Z,101498.31
2022-10-10T19:40:14.390Z,101503.44
2022-10-10T19:42:41.547Z,101506.88
2022-10-10T19:45:09.168Z,101511.69
2022-10-10T19:47:36.569Z,101518.09
2022-10-10T19:50:03.803Z,101529.03
2022-10-10T19:52:30.727Z,101527.16
2022-10-10T19:54:58.282Z,101530.13
2022-10-10T19:57:25.279Z,101540.69
2022-10-10T19:59:52.592Z,101543.25
2022-10-10T20:02:19.951Z,101544.81
2022-10-10T20:04:46.799Z,101558.44
2022-10-10T20:07:14.057Z,101558.38
2022-10-10T20:09:41.466Z,101552.25
2022-10-10T20:12:08.593Z,101566.97
2022-10-10T20:14:35.737Z,101554.81
2022-10-10T20:17:03.617Z,101555.59
2022-10-10T20:19:30.769Z,101556.66
2022-10-10T20:21:57.892Z,101561.25
2022-10-10T20:24:25.323Z,101553.88
2022-10-10T20:26:52.392Z,101561.06
2022-10-10T20:29:19.380Z,101557.19
2022-10-10T20:31:46.940Z,101563.16
2022-10-10T20:34:14.227Z,101560.72
2022-10-10T20:36:41.682Z,101567.63
2022-10-10T20:39:11.976Z,101570.94
2022-10-10T20:41:40.453Z,101560.22
2022-10-10T20:44:08.167Z,101567.94
2022-10-10T20:46:36.948Z,101572.66
2022-10-10T20:49:05.969Z,101572.66
2022-10-10T20:51:33.431Z,101570.50
2022-10-10T20:54:02.150Z,101577.38
2022-10-10T20:56:29.948Z,101582.69
2022-10-10T20:58:57.096Z,101589.00
2022-10-10T21:01:26.761Z,101588.88
2022-10-10T21:03:54.467Z,101592.41
2022-10-10T21:06:26.462Z,101594.56
2022-10-10T21:08:54.180Z,101608.28
2022-10-10T21:11:22.462Z,101593.72
2022-10-10T21:13:54.255Z,101599.63
2022-10-10T21:16:23.199Z,101600.97
2022-10-10T21:18:57.521Z,101602.56
2022-10-10T21:21:31.041Z,101608.00
2022-10-10T21:23:58.740Z,101619.69
2022-10-10T21:26:27.340Z,101616.09
2022-10-10T21:28:54.978Z,101616.03
2022-10-10T21:31:26.580Z,101620.16
2022-10-10T21:33:54.343Z,101623.28
2022-10-10T21:36:21.822Z,101626.50
2022-10-10T21:38:48.720Z,101626.19
2022-10-10T21:41:19.568Z,101641.59
2022-10-10T21:43:47.593Z,101635.81
2022-10-10T21:46:16.530Z,101644.97
2022-10-10T21:48:43.878Z,101655.72
2022-10-10T21:51:10.786Z,101648.94
2022-10-10T21:53:38.142Z,101654.00
2022-10-10T21:56:06.963Z,101658.19
2022-10-10T21:58:35.782Z,101660.47
2022-10-10T22:01:09.746Z,101661.31
2022-10-10T22:03:37.259Z,101661.97
2022-10-10T22:06:08.597Z,101661.97
2022-10-10T22:08:36.688Z,101670.63
2022-10-10T22:11:05.292Z,101678.78
2022-10-10T22:13:32.682Z,101677.50
2022-10-10T22:15:59.666Z,101681.78
2022-10-10T22:18:27.276Z,101691.72
2022-10-10T22:20:54.150Z,101692.06
2022-10-10T22:23:21.591Z,101697.75
2022-10-10T22:25:49.908Z,101703.88
2022-10-10T22:28:17.237Z,101705.06
2022-10-10T22:30:44.544Z,101706.56
2022-10-10T22:33:11.617Z,101706.50
2022-10-10T22:35:38.580Z,101706.06
2022-10-10T22:38:05.792Z,101702.63
2022-10-10T22:40:32.722Z,101705.97
2022-10-10T22:42:59.746Z,101711.94
2022-10-10T22:45:26.914Z,101702.75
2022-10-10T22:47:53.810Z,101708.94
2022-10-10T22:50:20.766Z,101706.94
2022-10-10T22:52:48.298Z,101713.78
2022-10-10T22:55:18.500Z,101706.50
2022-10-10T22:57:46.442Z,101717.53
2022-10-10T23:00:13.846Z,101716.56
2022-10-10T23:02:40.831Z,101713.69
2022-10-10T23:05:08.655Z,101722.44
2022-10-10T23:07:35.641Z,101720.03
2022-10-10T23:10:02.563Z,101718.47
2022-10-10T23:12:29.839Z,101724.75
2022-10-10T23:14:56.757Z,101735.75
2022-10-10T23:17:23.737Z,101737.53
2022-10-10T23:19:50.883Z,101737.31
2022-10-10T23:22:17.825Z,101735.22
2022-10-10T23:24:45.071Z,101744.06
2022-10-10T23:27:12.200Z,101748.75
2022-10-10T23:29:39.066Z,101760.47
2022-10-10T23:32:06.085Z,101762.28
2022-10-10T23:34:33.377Z,101770.31
2022-10-10T23:37:00.391Z,101773.69
2022-10-10T23:39:27.344Z,101780.13
2022-10-10T23:41:54.400Z,101799.59
2022-10-10T23:44:21.255Z,101789.22
2022-10-10T23:46:48.223Z,101796.38
2022-10-10T23:49:15.284Z,101805.09
2022-10-10T23:51:42.137Z,101801.81
2022-10-10T23:54:09.031Z,101807.06
2022-10-10T23:56:36.182Z,101812.38
2022-10-10T23:59:03.125Z,101816.03
